Toni Pires — CUPT7 — position and weather

sailwx.info

Track history (hours):
 
Tides and Currents Weather Stations Pressure Air Temp Water Temp Dewpoint Dewpoint Depression Visibility Wind Speed Wind Dir Waves Ship Positions

Toni Pires

Last reported at 2018-Jul-22 04:23 UTC. Time now 2018-Jul-22 08:38 UTC.
Position N 36°49' W 008°10'.

Length 26 m; draft 12.4 m.

Type: Tanker. MMSI: 263578000.

Date/timePositionNaut miles runAvg speedWind from/ knotsBaromVisibWave heightAir tempDewpointWater temp
2018-Jul-22 04:23N 36°49' W 008°10'3 9.1
2018-Jul-22 04:00N 36°51' W 008°14'4 8.7
2018-Jul-22 03:30N 36°54' W 008°18'4 8.8
2018-Jul-22 03:00N 36°58' W 008°21'4 8.9
2018-Jul-22 02:30N 37°01' W 008°25'4 9.0
2018-Jul-22 02:00N 37°04' W 008°29'4 8.4
2018-Jul-22 01:30N 37°08' W 008°32'0 0.3
2018-Jul-22 01:00N 37°08' W 008°32'0 0.0
2018-Jul-22 00:30N 37°08' W 008°32'0 0.0
2018-Jul-22 00:00N 37°08' W 008°32'0 0.0
2018-Jul-21 23:30N 37°08' W 008°32'0 0.0
2018-Jul-21 23:00N 37°08' W 008°32'0 0.0
2018-Jul-21 22:30N 37°08' W 008°32'0 0.0
2018-Jul-21 22:00N 37°08' W 008°32'2 4.8
2018-Jul-21 21:30N 37°06' W 008°32'4 8.5
2018-Jul-21 21:00N 37°01' W 008°32'4 8.4
2018-Jul-21 20:30N 36°57' W 008°31'4 8.2
2018-Jul-21 20:00N 36°53' W 008°30'1 2.5
2018-Jul-21 19:30N 36°52' W 008°30'2 2.9
2018-Jul-21 18:57N 36°50' W 008°31'1 2.4
2018-Jul-21 18:30N 36°49' W 008°30'2 2.9
2018-Jul-21 17:57N 36°50' W 008°28'2 2.9
2018-Jul-21 17:19N 36°50' W 008°26'1 3.0
2018-Jul-21 17:00N 36°49' W 008°25'3 3.0
2018-Jul-21 16:05N 36°49' W 008°22'1 3.7
2018-Jul-21 15:53N 36°49' W 008°21'6 2.4
2018-Jul-21 13:17N 36°49' W 008°13'1 2.8
2018-Jul-21 12:58N 36°49' W 008°12'0 0.6
2018-Jul-21 12:28N 36°49' W 008°12'1 1.7
2018-Jul-21 12:00N 36°49' W 008°13'1 0.2
2018-Jul-21 05:34N 36°48' W 008°14'0 2.8
2018-Jul-21 05:26N 36°48' W 008°14'2 1.6
2018-Jul-21 04:11N 36°47' W 008°12'12 2.4
2018-Jul-20 23:14N 36°47' W 008°27'1 2.4
2018-Jul-20 22:51N 36°47' W 008°28'1 2.4
2018-Jul-20 22:29N 36°47' W 008°29'6 4.6
2018-Jul-20 21:11N 36°52' W 008°32'2 9.1
2018-Jul-20 20:58N 36°54' W 008°32'4 9.2
2018-Jul-20 20:29N 36°59' W 008°32'5 9.3
2018-Jul-20 20:00N 37°03' W 008°32'4 8.7
2018-Jul-20 19:30N 37°08' W 008°32'0 0.6
2018-Jul-20 19:00N 37°08' W 008°32'0 0.0
2018-Jul-20 18:26N 37°08' W 008°32'0 0.0
2018-Jul-20 18:00N 37°08' W 008°32'0 0.0
2018-Jul-20 17:30N 37°08' W 008°32'0 0.0
2018-Jul-20 17:00N 37°08' W 008°32'0 0.0
2018-Jul-20 16:30N 37°08' W 008°32'3 6.3
2018-Jul-20 16:00N 37°05' W 008°33'5 9.2
2018-Jul-20 15:30N 37°03' W 008°38'5 9.3
2018-Jul-20 15:00N 37°02' W 008°44'5 0.3
2018-Jul-19 23:16N 37°04' W 008°38'2 9.3
2018-Jul-19 23:00N 37°05' W 008°35'4 8.4
2018-Jul-19 22:30N 37°07' W 008°32'0 0.9
2018-Jul-19 22:01N 37°08' W 008°32'0 0.0
2018-Jul-19 21:30N 37°08' W 008°32'0 0.0
2018-Jul-19 21:01N 37°08' W 008°32'0 0.0
2018-Jul-19 20:30N 37°08' W 008°32'0 0.0
2018-Jul-19 20:00N 37°08' W 008°32'0 0.0
2018-Jul-19 19:29N 37°08' W 008°32'0 0.3
2018-Jul-19 18:58N 37°08' W 008°32'0 0.0
2018-Jul-19 18:30N 37°08' W 008°32'0 0.0
2018-Jul-19 18:00N 37°08' W 008°32'0 0.0
2018-Jul-19 17:30N 37°08' W 008°32'0 0.0
2018-Jul-19 17:00N 37°08' W 008°32'0 0.0
2018-Jul-19 16:31N 37°08' W 008°32'0 0.0
2018-Jul-19 15:58N 37°08' W 008°32'0 0.0
2018-Jul-19 15:30N 37°08' W 008°32'0 0.0
2018-Jul-19 15:00N 37°08' W 008°32'0 0.0
2018-Jul-19 14:30N 37°08' W 008°32'0 0.0
2018-Jul-19 13:30N 37°08' W 008°32'0 0.0
2018-Jul-19 13:00N 37°08' W 008°32'0 0.0
2018-Jul-19 12:30N 37°08' W 008°32'0 0.0
2018-Jul-19 12:00N 37°08' W 008°32'0 0.0
2018-Jul-19 11:30N 37°08' W 008°32'0 0.0
2018-Jul-19 10:52N 37°08' W 008°32'0 0.0
2018-Jul-19 10:30N 37°08' W 008°32'0 0.0
2018-Jul-19 09:59N 37°08' W 008°32'0 0.0
2018-Jul-19 09:29N 37°08' W 008°32'0 0.0
2018-Jul-19 09:00N 37°08' W 008°32'0 0.0
2018-Jul-19 08:31N 37°08' W 008°32'0 0.0
2018-Jul-19 07:58N 37°08' W 008°32'0 0.0
2018-Jul-19 07:28N 37°08' W 008°32'0 0.0
2018-Jul-19 06:59N 37°08' W 008°32'0 0.0
2018-Jul-19 06:26N 37°08' W 008°32'0 0.0
2018-Jul-19 05:50N 37°08' W 008°32'0 0.0
2018-Jul-19 05:30N 37°08' W 008°32'0 0.0
2018-Jul-19 05:00N 37°08' W 008°32'0 0.0
2018-Jul-19 04:30N 37°08' W 008°32'0 0.0
2018-Jul-19 04:00N 37°08' W 008°32'0 0.0
2018-Jul-19 03:30N 37°08' W 008°32'0 0.0
2018-Jul-19 03:00N 37°08' W 008°32'0 0.0
2018-Jul-19 02:30N 37°08' W 008°32'0 0.0
2018-Jul-19 02:00N 37°08' W 008°32'0 0.0
2018-Jul-19 01:30N 37°08' W 008°32'0 0.0
2018-Jul-19 01:00N 37°08' W 008°32'0 0.0
2018-Jul-19 00:30N 37°08' W 008°32'0 0.0
2018-Jul-19 00:01N 37°08' W 008°32'0 0.0
2018-Jul-18 23:30N 37°08' W 008°32'0 0.0
2018-Jul-18 23:00N 37°08' W 008°32'0 0.0
2018-Jul-18 22:30N 37°08' W 008°32'0 0.0
2018-Jul-18 22:01N 37°08' W 008°32'0 0.0
2018-Jul-18 21:31N 37°08' W 008°32'0 0.0
2018-Jul-18 21:00N 37°08' W 008°32'0 0.0
2018-Jul-18 20:31N 37°08' W 008°32'0 0.0
2018-Jul-18 20:00N 37°08' W 008°32'0 0.0
2018-Jul-18 19:31N 37°08' W 008°32'0 0.0
2018-Jul-18 19:01N 37°08' W 008°32'0 0.0
2018-Jul-18 18:31N 37°08' W 008°32'0 0.0
2018-Jul-18 18:01N 37°08' W 008°32'0 0.0
2018-Jul-18 17:31N 37°08' W 008°32'0 0.0
2018-Jul-18 17:01N 37°08' W 008°32'0 0.0
2018-Jul-18 16:31N 37°08' W 008°32'0 0.0
2018-Jul-18 16:00N 37°08' W 008°32'0 0.0
2018-Jul-18 15:30N 37°08' W 008°32'0 0.0
2018-Jul-18 15:01N 37°08' W 008°32'0 0.0
2018-Jul-18 14:30N 37°08' W 008°32'0 0.0
2018-Jul-18 13:30N 37°08' W 008°32'0 0.0
2018-Jul-18 13:00N 37°08' W 008°32'0 0.0
2018-Jul-18 12:30N 37°08' W 008°32'0 0.0
2018-Jul-18 12:00N 37°08' W 008°32'0 0.0
2018-Jul-18 11:30N 37°08' W 008°32'0 0.0
2018-Jul-18 10:30N 37°08' W 008°32'0 0.0
2018-Jul-18 10:00N 37°08' W 008°32'0 0.0
2018-Jul-18 09:30N 37°08' W 008°32'0 0.0
2018-Jul-18 09:01N 37°08' W 008°32'0 0.0
2018-Jul-18 08:30N 37°08' W 008°32'0 0.0
2018-Jul-18 08:01N 37°08' W 008°32'0 0.0
2018-Jul-18 07:30N 37°08' W 008°32'0 0.0
2018-Jul-18 07:01N 37°08' W 008°32'0 0.0
2018-Jul-18 06:30N 37°08' W 008°32'0 0.0
2018-Jul-18 06:00N 37°08' W 008°32'0 0.0
2018-Jul-18 05:30N 37°08' W 008°32'0 0.0
2018-Jul-18 05:01N 37°08' W 008°32'0 0.0
2018-Jul-18 04:30N 37°08' W 008°32'0 0.0
2018-Jul-18 04:00N 37°08' W 008°32'0 0.0
2018-Jul-18 03:30N 37°08' W 008°32'0 0.0
2018-Jul-18 03:01N 37°08' W 008°32'0 0.0
2018-Jul-18 02:31N 37°08' W 008°32'0 0.0
2018-Jul-18 02:01N 37°08' W 008°32'0 0.0
2018-Jul-18 01:31N 37°08' W 008°32'0 0.0
2018-Jul-18 01:00N 37°08' W 008°32'0 0.0
2018-Jul-18 00:31N 37°08' W 008°32'0 0.0
2018-Jul-17 23:58N 37°08' W 008°32'0 0.0
2018-Jul-17 23:30N 37°08' W 008°32'0 0.0
2018-Jul-17 23:00N 37°08' W 008°32'0 0.0
2018-Jul-17 22:30N 37°08' W 008°32'0 0.0
2018-Jul-17 22:00N 37°08' W 008°32'0 0.0
2018-Jul-17 21:30N 37°08' W 008°32'0 0.0
2018-Jul-17 21:00N 37°08' W 008°32'0 0.0
2018-Jul-17 20:31N 37°08' W 008°32'0 0.0
2018-Jul-17 20:00N 37°08' W 008°32'0 0.0
2018-Jul-17 19:31N 37°08' W 008°32'0 0.0
2018-Jul-17 19:00N 37°08' W 008°32'0 0.0
2018-Jul-17 18:30N 37°08' W 008°32'0 0.0
2018-Jul-17 18:00N 37°08' W 008°32'0 0.0
2018-Jul-17 17:30N 37°08' W 008°32'0 0.0
2018-Jul-17 17:00N 37°08' W 008°32'0 0.0
2018-Jul-17 16:30N 37°08' W 008°32'0 0.0
2018-Jul-17 16:00N 37°08' W 008°32'0 0.0
2018-Jul-17 15:31N 37°08' W 008°32'0 0.0
2018-Jul-17 15:00N 37°08' W 008°32'0 0.0
2018-Jul-17 14:30N 37°08' W 008°32'0 0.0
2018-Jul-17 14:00N 37°08' W 008°32'0 0.0
2018-Jul-17 13:30N 37°08' W 008°32'0 0.0
2018-Jul-17 13:01N 37°08' W 008°32'0 0.0
2018-Jul-17 12:30N 37°08' W 008°32'0 0.0
2018-Jul-17 12:01N 37°08' W 008°32'0 0.0
2018-Jul-17 11:31N 37°08' W 008°32'0 0.0
2018-Jul-17 11:01N 37°08' W 008°32'0 0.0
2018-Jul-17 10:31N 37°08' W 008°32'0 0.0
2018-Jul-17 10:00N 37°08' W 008°32'0 0.0
2018-Jul-17 09:31N 37°08' W 008°32'0 0.0
2018-Jul-17 09:00N 37°08' W 008°32'0 0.0
2018-Jul-17 08:30N 37°08' W 008°32'0 0.0
2018-Jul-17 08:00N 37°08' W 008°32'0 0.0
2018-Jul-17 07:31N 37°08' W 008°32'0 0.0
2018-Jul-17 07:00N 37°08' W 008°32'0 0.0
2018-Jul-17 06:30N 37°08' W 008°32'0 0.0
2018-Jul-17 06:00N 37°08' W 008°32'0 0.0
2018-Jul-17 05:30N 37°08' W 008°32'0 0.0
2018-Jul-17 04:55N 37°08' W 008°32'0 0.0
2018-Jul-17 04:30N 37°08' W 008°32'0 0.0
2018-Jul-17 03:56N 37°08' W 008°32'0 0.0
2018-Jul-17 03:25N 37°08' W 008°32'0 0.0
2018-Jul-17 03:00N 37°08' W 008°32'0 0.0
2018-Jul-17 02:28N 37°08' W 008°32'0 0.0
2018-Jul-17 01:58N 37°08' W 008°32'0 0.0
2018-Jul-17 01:28N 37°08' W 008°32'0 0.0
2018-Jul-17 00:46N 37°08' W 008°32'0 0.0
2018-Jul-17 00:29N 37°08' W 008°32'0 0.0
2018-Jul-16 23:30N 37°08' W 008°32'0 0.0
2018-Jul-16 23:00N 37°08' W 008°32'0 0.0
2018-Jul-16 22:30N 37°08' W 008°32'0 0.0
2018-Jul-16 22:00N 37°08' W 008°32'0 0.0
2018-Jul-16 21:30N 37°08' W 008°32'0 0.0
2018-Jul-16 20:59N 37°08' W 008°32'0 0.0
2018-Jul-16 20:28N 37°08' W 008°32'0 0.0
2018-Jul-16 19:55N 37°08' W 008°32'0 0.0
2018-Jul-16 19:27N 37°08' W 008°32'0 0.0
2018-Jul-16 19:01N 37°08' W 008°32'0 0.0
2018-Jul-16 18:30N 37°08' W 008°32'0 0.0
2018-Jul-16 18:00N 37°08' W 008°32'0 0.0
2018-Jul-16 17:31N 37°08' W 008°32'0 0.0
2018-Jul-16 17:00N 37°08' W 008°32'0 0.0
2018-Jul-16 16:30N 37°08' W 008°32'0 0.0
2018-Jul-16 16:01N 37°08' W 008°32'0 0.0
2018-Jul-16 15:31N 37°08' W 008°32'0 0.0
2018-Jul-16 15:01N 37°08' W 008°32'0 0.0
2018-Jul-16 14:30N 37°08' W 008°32'0 0.0
2018-Jul-16 14:01N 37°08' W 008°32'0 0.0
2018-Jul-16 13:30N 37°08' W 008°32'0 0.0
2018-Jul-16 13:00N 37°08' W 008°32'0 0.0
2018-Jul-16 12:30N 37°08' W 008°32'0 0.0
2018-Jul-16 12:00N 37°08' W 008°32'0 0.0
2018-Jul-16 11:30N 37°08' W 008°32'0 0.0
2018-Jul-16 11:01N 37°08' W 008°32'0 0.0
2018-Jul-16 10:31N 37°08' W 008°32'0 0.0
2018-Jul-16 10:01N 37°08' W 008°32'0 0.0
2018-Jul-16 09:30N 37°08' W 008°32'0 0.0
2018-Jul-16 09:00N 37°08' W 008°32'0 0.0
2018-Jul-16 08:30N 37°08' W 008°32'0 0.0
2018-Jul-16 08:01N 37°08' W 008°32'0 0.0
2018-Jul-16 07:30N 37°08' W 008°32'0 0.0
2018-Jul-16 07:00N 37°08' W 008°32'0 0.0
2018-Jul-16 06:30N 37°08' W 008°32'0 0.0
2018-Jul-16 06:01N 37°08' W 008°32'0 0.0
2018-Jul-16 05:30N 37°08' W 008°32'0 0.0
2018-Jul-16 05:00N 37°08' W 008°32'0 0.0
2018-Jul-16 04:30N 37°08' W 008°32'0 0.0
2018-Jul-16 03:59N 37°08' W 008°32'0 0.0
2018-Jul-16 03:30N 37°08' W 008°32'0 0.0
2018-Jul-16 03:01N 37°08' W 008°32'0 0.0
2018-Jul-16 02:30N 37°08' W 008°32'0 0.0
2018-Jul-16 02:00N 37°08' W 008°32'0 0.0
2018-Jul-16 01:31N 37°08' W 008°32'0 0.0
2018-Jul-16 01:00N 37°08' W 008°32'0 0.0
2018-Jul-16 00:30N 37°08' W 008°32'0 0.0
2018-Jul-16 00:00N 37°08' W 008°32'0 0.0
2018-Jul-15 23:30N 37°08' W 008°32'0 0.0
2018-Jul-15 23:01N 37°08' W 008°32'0 0.0
2018-Jul-15 22:31N 37°08' W 008°32'0 0.0
2018-Jul-15 22:00N 37°08' W 008°32'0 0.0
2018-Jul-15 21:31N 37°08' W 008°32'0 0.0
2018-Jul-15 21:00N 37°08' W 008°32'0 0.0
2018-Jul-15 20:30N 37°08' W 008°32'0 0.0
2018-Jul-15 20:00N 37°08' W 008°32'0 0.0
2018-Jul-15 19:30N 37°08' W 008°32'0 0.0
2018-Jul-15 19:01N 37°08' W 008°32'0 0.0
2018-Jul-15 18:30N 37°08' W 008°32'0 0.0
2018-Jul-15 18:00N 37°08' W 008°32'0 0.0
2018-Jul-15 17:31N 37°08' W 008°32'0 0.0
2018-Jul-15 17:00N 37°08' W 008°32'0 0.0
2018-Jul-15 16:29N 37°08' W 008°32'0 0.0
2018-Jul-15 16:01N 37°08' W 008°32'0 0.0
2018-Jul-15 15:30N 37°08' W 008°32'0 0.0
2018-Jul-15 15:00N 37°08' W 008°32'0 0.0
2018-Jul-15 14:30N 37°08' W 008°32'0 0.0
2018-Jul-15 14:01N 37°08' W 008°32'0 0.0
2018-Jul-15 13:30N 37°08' W 008°32'0 0.0
2018-Jul-15 13:00N 37°08' W 008°32'0 0.0
2018-Jul-15 12:30N 37°08' W 008°32'0 0.0
2018-Jul-15 12:00N 37°08' W 008°32'0 0.0
2018-Jul-15 11:30N 37°08' W 008°32'0 0.0
2018-Jul-15 11:00N 37°08' W 008°32'0 0.0
2018-Jul-15 10:31N 37°08' W 008°32'0 0.0
2018-Jul-15 10:00N 37°08' W 008°32'0 0.0
2018-Jul-15 09:31N 37°08' W 008°32'0 0.0
2018-Jul-15 09:00N 37°08' W 008°32'0 0.0
2018-Jul-15 08:30N 37°08' W 008°32'0 0.0
2018-Jul-15 08:00N 37°08' W 008°32'0 0.0
2018-Jul-15 07:30N 37°08' W 008°32'0 0.0
2018-Jul-15 07:01N 37°08' W 008°32'0 0.0
2018-Jul-15 06:31N 37°08' W 008°32'0 0.0
2018-Jul-15 06:00N 37°08' W 008°32'0 0.0
2018-Jul-15 05:30N 37°08' W 008°32'0 0.0
2018-Jul-15 05:00N 37°08' W 008°32'0 0.0
2018-Jul-15 04:31N 37°08' W 008°32'0 0.0
2018-Jul-15 04:01N 37°08' W 008°32'0 0.0
2018-Jul-15 03:30N 37°08' W 008°32'0 0.0
2018-Jul-15 03:01N 37°08' W 008°32'0 0.0
2018-Jul-15 02:30N 37°08' W 008°32'0 0.0
2018-Jul-15 02:01N 37°08' W 008°32'0 0.0
2018-Jul-15 01:30N 37°08' W 008°32'0 0.0
2018-Jul-15 01:01N 37°08' W 008°32'0 0.0
2018-Jul-15 00:31N 37°08' W 008°32'0 0.0
2018-Jul-15 00:00N 37°08' W 008°32'0 0.0
2018-Jul-14 23:31N 37°08' W 008°32'0 0.0
2018-Jul-14 23:01N 37°08' W 008°32'0 0.0
2018-Jul-14 22:31N 37°08' W 008°32'0 0.0
2018-Jul-14 22:00N 37°08' W 008°32'0 0.0
2018-Jul-14 21:30N 37°08' W 008°32'0 0.0
2018-Jul-14 21:00N 37°08' W 008°32'0 0.0
2018-Jul-14 20:30N 37°08' W 008°32'0 0.0
2018-Jul-14 20:00N 37°08' W 008°32'0 0.0
2018-Jul-14 19:30N 37°08' W 008°32'0 0.0
2018-Jul-14 19:00N 37°08' W 008°32'0 0.0
2018-Jul-14 18:30N 37°08' W 008°32'0 0.0
2018-Jul-14 18:00N 37°08' W 008°32'0 0.0
2018-Jul-14 17:30N 37°08' W 008°32'0 0.0
2018-Jul-14 17:00N 37°08' W 008°32'0 0.0
2018-Jul-14 16:30N 37°08' W 008°32'0 0.0
2018-Jul-14 16:00N 37°08' W 008°32'0 0.0
2018-Jul-14 15:31N 37°08' W 008°32'0 0.0
2018-Jul-14 15:01N 37°08' W 008°32'0 0.0
2018-Jul-14 14:31N 37°08' W 008°32'0 0.0
2018-Jul-14 13:30N 37°08' W 008°32'0 0.0
2018-Jul-14 13:01N 37°08' W 008°32'0 0.0
2018-Jul-14 12:30N 37°08' W 008°32'0 0.0
2018-Jul-14 12:00N 37°08' W 008°32'0 0.0
2018-Jul-14 11:30N 37°08' W 008°32'0 0.0
2018-Jul-14 11:01N 37°08' W 008°32'0 0.0
2018-Jul-14 10:30N 37°08' W 008°32'0 0.0
2018-Jul-14 10:00N 37°08' W 008°32'0 0.0
2018-Jul-14 09:30N 37°08' W 008°32'0 0.0
2018-Jul-14 09:00N 37°08' W 008°32'0 0.0
2018-Jul-14 08:30N 37°08' W 008°32'0 0.0
2018-Jul-14 08:01N 37°08' W 008°32'0 0.0
2018-Jul-14 07:31N 37°08' W 008°32'0 0.0
2018-Jul-14 07:00N 37°08' W 008°32'0 0.0
2018-Jul-14 06:31N 37°08' W 008°32'0 0.0
2018-Jul-14 06:00N 37°08' W 008°32'0 0.0
2018-Jul-14 05:30N 37°08' W 008°32'0 0.0
2018-Jul-14 05:00N 37°08' W 008°32'0 0.0
2018-Jul-14 04:31N 37°08' W 008°32'0 0.0
2018-Jul-14 04:00N 37°08' W 008°32'0 0.0
2018-Jul-14 03:30N 37°08' W 008°32'0 0.0
2018-Jul-14 03:00N 37°08' W 008°32'0 0.0
2018-Jul-14 02:30N 37°08' W 008°32'0 0.0
2018-Jul-14 02:01N 37°08' W 008°32'0 0.0
2018-Jul-14 01:30N 37°08' W 008°32'0 0.0
2018-Jul-14 01:00N 37°08' W 008°32'0 0.0
2018-Jul-14 00:30N 37°08' W 008°32'0 0.0
2018-Jul-14 00:00N 37°08' W 008°32'0 0.0
2018-Jul-13 23:30N 37°08' W 008°32'0 0.0
2018-Jul-13 23:00N 37°08' W 008°32'0 0.0
2018-Jul-13 22:30N 37°08' W 008°32'0 0.0
2018-Jul-13 22:01N 37°08' W 008°32'0 0.0
2018-Jul-13 21:30N 37°08' W 008°32'0 0.0
2018-Jul-13 21:01N 37°08' W 008°32'0 0.0
2018-Jul-13 20:30N 37°08' W 008°32'0 0.0
2018-Jul-13 20:00N 37°08' W 008°32'0 0.0
2018-Jul-13 19:30N 37°08' W 008°32'0 0.0
2018-Jul-13 19:00N 37°08' W 008°32'0 0.0
2018-Jul-13 18:30N 37°08' W 008°32'0 0.0
2018-Jul-13 18:00N 37°08' W 008°32'0 0.0
2018-Jul-13 17:31N 37°08' W 008°32'0 0.0
2018-Jul-13 17:00N 37°08' W 008°32'0 0.0
2018-Jul-13 16:30N 37°08' W 008°32'0 0.0
2018-Jul-13 16:00N 37°08' W 008°32'0 0.0
2018-Jul-13 15:30N 37°08' W 008°32'0 0.0
2018-Jul-13 15:01N 37°08' W 008°32'0 0.0
2018-Jul-13 14:00N 37°08' W 008°32'0 0.0
2018-Jul-13 13:30N 37°08' W 008°32'0 0.0
2018-Jul-13 13:01N 37°08' W 008°32'0 0.0
2018-Jul-13 12:30N 37°08' W 008°32'0 0.0
2018-Jul-13 12:01N 37°08' W 008°32'0 0.0
2018-Jul-13 11:30N 37°08' W 008°32'0 0.0
2018-Jul-13 11:00N 37°08' W 008°32'0 0.0
2018-Jul-13 10:30N 37°08' W 008°32'0 0.0
2018-Jul-13 10:00N 37°08' W 008°32'0 0.0
2018-Jul-13 09:31N 37°08' W 008°32'0 0.0
2018-Jul-13 09:00N 37°08' W 008°32'0 0.0
2018-Jul-13 08:30N 37°08' W 008°32'0 0.0
2018-Jul-13 08:01N 37°08' W 008°32'0 0.0
2018-Jul-13 07:30N 37°08' W 008°32'0 0.0
2018-Jul-13 07:00N 37°08' W 008°32'0 0.0
2018-Jul-13 06:30N 37°08' W 008°32'0 0.0
2018-Jul-13 06:01N 37°08' W 008°32'0 0.0
2018-Jul-13 05:30N 37°08' W 008°32'0 0.0
2018-Jul-13 05:01N 37°08' W 008°32'0 0.0
2018-Jul-13 04:31N 37°08' W 008°32'0 0.0
2018-Jul-13 03:59N 37°08' W 008°32'0 0.0
2018-Jul-13 03:30N 37°08' W 008°32'0 0.0
2018-Jul-13 03:00N 37°08' W 008°32'0 0.0
2018-Jul-13 02:30N 37°08' W 008°32'0 0.0
2018-Jul-13 02:00N 37°08' W 008°32'0 0.0
2018-Jul-13 01:31N 37°08' W 008°32'0 0.0
2018-Jul-13 01:00N 37°08' W 008°32'0 0.0
2018-Jul-13 00:30N 37°08' W 008°32'0 0.0
2018-Jul-13 00:00N 37°08' W 008°32'0 0.0
2018-Jul-12 23:30N 37°08' W 008°32'0 0.0
2018-Jul-12 23:00N 37°08' W 008°32'0 0.2
2018-Jul-12 22:31N 37°08' W 008°32'0 0.0
2018-Jul-12 22:00N 37°08' W 008°32'0 0.0
2018-Jul-12 21:30N 37°08' W 008°32'0 0.0
2018-Jul-12 21:00N 37°08' W 008°32'0 0.0
2018-Jul-12 20:31N 37°08' W 008°32'0 0.0
2018-Jul-12 20:00N 37°08' W 008°32'0 0.0
2018-Jul-12 19:30N 37°08' W 008°32'0 0.0
2018-Jul-12 18:59N 37°08' W 008°32'0 0.0
2018-Jul-12 18:30N 37°08' W 008°32'0 0.0
2018-Jul-12 18:00N 37°08' W 008°32'0 0.0
2018-Jul-12 17:30N 37°08' W 008°32'0 0.0
2018-Jul-12 17:01N 37°08' W 008°32'0 0.0
2018-Jul-12 16:30N 37°08' W 008°32'0 0.4
2018-Jul-12 16:01N 37°08' W 008°32'3 6.9
2018-Jul-12 15:30N 37°04' W 008°32'4 8.8
2018-Jul-12 15:00N 37°00' W 008°34'5 8.9
2018-Jul-12 14:30N 36°56' W 008°36'4 7.5
2018-Jul-12 14:00N 36°52' W 008°37'1 1.3
2018-Jul-12 13:30N 36°52' W 008°38'2 3.2
2018-Jul-12 13:00N 36°51' W 008°39'1 3.0
2018-Jul-12 12:30N 36°50' W 008°41'2 3.7
2018-Jul-12 12:00N 36°50' W 008°43'2 3.0
2018-Jul-12 11:29N 36°50' W 008°41'7 3.1
2018-Jul-12 09:06N 36°50' W 008°32'1 2.0
2018-Jul-12 08:46N 36°49' W 008°31'1 3.2
2018-Jul-12 08:30N 36°49' W 008°30'2 3.2
2018-Jul-12 08:00N 36°49' W 008°28'  
Track history (hours):
 
Tides and Currents Weather Stations Pressure Air Temp Water Temp Dewpoint Dewpoint Depression Visibility Wind Speed Wind Dir Waves Ship Positions

Toni Pires

Last reported at 2018-Jul-22 04:23 UTC. Time now 2018-Jul-22 08:38 UTC.
Position N 36°49' W 008°10'.

Length 26 m; draft 12.4 m.

Type: Tanker. MMSI: 263578000.

Date/timePositionNaut miles runAvg speedWind from/ knotsBaromVisibWave heightAir tempDewpointWater temp
2018-Jul-22 04:23N 36°49' W 008°10'3 9.1
2018-Jul-22 04:00N 36°51' W 008°14'4 8.7
2018-Jul-22 03:30N 36°54' W 008°18'4 8.8
2018-Jul-22 03:00N 36°58' W 008°21'4 8.9
2018-Jul-22 02:30N 37°01' W 008°25'4 9.0
2018-Jul-22 02:00N 37°04' W 008°29'4 8.4
2018-Jul-22 01:30N 37°08' W 008°32'0 0.3
2018-Jul-22 01:00N 37°08' W 008°32'0 0.0
2018-Jul-22 00:30N 37°08' W 008°32'0 0.0
2018-Jul-22 00:00N 37°08' W 008°32'0 0.0
2018-Jul-21 23:30N 37°08' W 008°32'0 0.0
2018-Jul-21 23:00N 37°08' W 008°32'0 0.0
2018-Jul-21 22:30N 37°08' W 008°32'0 0.0
2018-Jul-21 22:00N 37°08' W 008°32'2 4.8
2018-Jul-21 21:30N 37°06' W 008°32'4 8.5
2018-Jul-21 21:00N 37°01' W 008°32'4 8.4
2018-Jul-21 20:30N 36°57' W 008°31'4 8.2
2018-Jul-21 20:00N 36°53' W 008°30'1 2.5
2018-Jul-21 19:30N 36°52' W 008°30'2 2.9
2018-Jul-21 18:57N 36°50' W 008°31'1 2.4
2018-Jul-21 18:30N 36°49' W 008°30'2 2.9
2018-Jul-21 17:57N 36°50' W 008°28'2 2.9
2018-Jul-21 17:19N 36°50' W 008°26'1 3.0
2018-Jul-21 17:00N 36°49' W 008°25'3 3.0
2018-Jul-21 16:05N 36°49' W 008°22'1 3.7
2018-Jul-21 15:53N 36°49' W 008°21'6 2.4
2018-Jul-21 13:17N 36°49' W 008°13'1 2.8
2018-Jul-21 12:58N 36°49' W 008°12'0 0.6
2018-Jul-21 12:28N 36°49' W 008°12'1 1.7
2018-Jul-21 12:00N 36°49' W 008°13'1 0.2
2018-Jul-21 05:34N 36°48' W 008°14'0 2.8
2018-Jul-21 05:26N 36°48' W 008°14'2 1.6
2018-Jul-21 04:11N 36°47' W 008°12'12 2.4
2018-Jul-20 23:14N 36°47' W 008°27'1 2.4
2018-Jul-20 22:51N 36°47' W 008°28'1 2.4
2018-Jul-20 22:29N 36°47' W 008°29'6 4.6
2018-Jul-20 21:11N 36°52' W 008°32'2 9.1
2018-Jul-20 20:58N 36°54' W 008°32'4 9.2
2018-Jul-20 20:29N 36°59' W 008°32'5 9.3
2018-Jul-20 20:00N 37°03' W 008°32'4 8.7
2018-Jul-20 19:30N 37°08' W 008°32'0 0.6
2018-Jul-20 19:00N 37°08' W 008°32'0 0.0
2018-Jul-20 18:26N 37°08' W 008°32'0 0.0
2018-Jul-20 18:00N 37°08' W 008°32'0 0.0
2018-Jul-20 17:30N 37°08' W 008°32'0 0.0
2018-Jul-20 17:00N 37°08' W 008°32'0 0.0
2018-Jul-20 16:30N 37°08' W 008°32'3 6.3
2018-Jul-20 16:00N 37°05' W 008°33'5 9.2
2018-Jul-20 15:30N 37°03' W 008°38'5 9.3
2018-Jul-20 15:00N 37°02' W 008°44'5 0.3
2018-Jul-19 23:16N 37°04' W 008°38'2 9.3
2018-Jul-19 23:00N 37°05' W 008°35'4 8.4
2018-Jul-19 22:30N 37°07' W 008°32'0 0.9
2018-Jul-19 22:01N 37°08' W 008°32'0 0.0
2018-Jul-19 21:30N 37°08' W 008°32'0 0.0
2018-Jul-19 21:01N 37°08' W 008°32'0 0.0
2018-Jul-19 20:30N 37°08' W 008°32'0 0.0
2018-Jul-19 20:00N 37°08' W 008°32'0 0.0
2018-Jul-19 19:29N 37°08' W 008°32'0 0.3
2018-Jul-19 18:58N 37°08' W 008°32'0 0.0
2018-Jul-19 18:30N 37°08' W 008°32'0 0.0
2018-Jul-19 18:00N 37°08' W 008°32'0 0.0
2018-Jul-19 17:30N 37°08' W 008°32'0 0.0
2018-Jul-19 17:00N 37°08' W 008°32'0 0.0
2018-Jul-19 16:31N 37°08' W 008°32'0 0.0
2018-Jul-19 15:58N 37°08' W 008°32'0 0.0
2018-Jul-19 15:30N 37°08' W 008°32'0 0.0
2018-Jul-19 15:00N 37°08' W 008°32'0 0.0
2018-Jul-19 14:30N 37°08' W 008°32'0 0.0
2018-Jul-19 13:30N 37°08' W 008°32'0 0.0
2018-Jul-19 13:00N 37°08' W 008°32'0 0.0
2018-Jul-19 12:30N 37°08' W 008°32'0 0.0
2018-Jul-19 12:00N 37°08' W 008°32'0 0.0
2018-Jul-19 11:30N 37°08' W 008°32'0 0.0
2018-Jul-19 10:52N 37°08' W 008°32'0 0.0
2018-Jul-19 10:30N 37°08' W 008°32'0 0.0
2018-Jul-19 09:59N 37°08' W 008°32'0 0.0
2018-Jul-19 09:29N 37°08' W 008°32'0 0.0
2018-Jul-19 09:00N 37°08' W 008°32'0 0.0
2018-Jul-19 08:31N 37°08' W 008°32'0 0.0
2018-Jul-19 07:58N 37°08' W 008°32'0 0.0
2018-Jul-19 07:28N 37°08' W 008°32'0 0.0
2018-Jul-19 06:59N 37°08' W 008°32'0 0.0
2018-Jul-19 06:26N 37°08' W 008°32'0 0.0
2018-Jul-19 05:50N 37°08' W 008°32'0 0.0
2018-Jul-19 05:30N 37°08' W 008°32'0 0.0
2018-Jul-19 05:00N 37°08' W 008°32'0 0.0
2018-Jul-19 04:30N 37°08' W 008°32'0 0.0
2018-Jul-19 04:00N 37°08' W 008°32'0 0.0
2018-Jul-19 03:30N 37°08' W 008°32'0 0.0
2018-Jul-19 03:00N 37°08' W 008°32'0 0.0
2018-Jul-19 02:30N 37°08' W 008°32'0 0.0
2018-Jul-19 02:00N 37°08' W 008°32'0 0.0
2018-Jul-19 01:30N 37°08' W 008°32'0 0.0
2018-Jul-19 01:00N 37°08' W 008°32'0 0.0
2018-Jul-19 00:30N 37°08' W 008°32'0 0.0
2018-Jul-19 00:01N 37°08' W 008°32'0 0.0
2018-Jul-18 23:30N 37°08' W 008°32'0 0.0
2018-Jul-18 23:00N 37°08' W 008°32'0 0.0
2018-Jul-18 22:30N 37°08' W 008°32'0 0.0
2018-Jul-18 22:01N 37°08' W 008°32'0 0.0
2018-Jul-18 21:31N 37°08' W 008°32'0 0.0
2018-Jul-18 21:00N 37°08' W 008°32'0 0.0
2018-Jul-18 20:31N 37°08' W 008°32'0 0.0
2018-Jul-18 20:00N 37°08' W 008°32'0 0.0
2018-Jul-18 19:31N 37°08' W 008°32'0 0.0
2018-Jul-18 19:01N 37°08' W 008°32'0 0.0
2018-Jul-18 18:31N 37°08' W 008°32'0 0.0
2018-Jul-18 18:01N 37°08' W 008°32'0 0.0
2018-Jul-18 17:31N 37°08' W 008°32'0 0.0
2018-Jul-18 17:01N 37°08' W 008°32'0 0.0
2018-Jul-18 16:31N 37°08' W 008°32'0 0.0
2018-Jul-18 16:00N 37°08' W 008°32'0 0.0
2018-Jul-18 15:30N 37°08' W 008°32'0 0.0
2018-Jul-18 15:01N 37°08' W 008°32'0 0.0
2018-Jul-18 14:30N 37°08' W 008°32'0 0.0
2018-Jul-18 13:30N 37°08' W 008°32'0 0.0
2018-Jul-18 13:00N 37°08' W 008°32'0 0.0
2018-Jul-18 12:30N 37°08' W 008°32'0 0.0
2018-Jul-18 12:00N 37°08' W 008°32'0 0.0
2018-Jul-18 11:30N 37°08' W 008°32'0 0.0
2018-Jul-18 10:30N 37°08' W 008°32'0 0.0
2018-Jul-18 10:00N 37°08' W 008°32'0 0.0
2018-Jul-18 09:30N 37°08' W 008°32'0 0.0
2018-Jul-18 09:01N 37°08' W 008°32'0 0.0
2018-Jul-18 08:30N 37°08' W 008°32'0 0.0
2018-Jul-18 08:01N 37°08' W 008°32'0 0.0
2018-Jul-18 07:30N 37°08' W 008°32'0 0.0
2018-Jul-18 07:01N 37°08' W 008°32'0 0.0
2018-Jul-18 06:30N 37°08' W 008°32'0 0.0
2018-Jul-18 06:00N 37°08' W 008°32'0 0.0
2018-Jul-18 05:30N 37°08' W 008°32'0 0.0
2018-Jul-18 05:01N 37°08' W 008°32'0 0.0
2018-Jul-18 04:30N 37°08' W 008°32'0 0.0
2018-Jul-18 04:00N 37°08' W 008°32'0 0.0
2018-Jul-18 03:30N 37°08' W 008°32'0 0.0
2018-Jul-18 03:01N 37°08' W 008°32'0 0.0
2018-Jul-18 02:31N 37°08' W 008°32'0 0.0
2018-Jul-18 02:01N 37°08' W 008°32'0 0.0
2018-Jul-18 01:31N 37°08' W 008°32'0 0.0
2018-Jul-18 01:00N 37°08' W 008°32'0 0.0
2018-Jul-18 00:31N 37°08' W 008°32'0 0.0
2018-Jul-17 23:58N 37°08' W 008°32'0 0.0
2018-Jul-17 23:30N 37°08' W 008°32'0 0.0
2018-Jul-17 23:00N 37°08' W 008°32'0 0.0
2018-Jul-17 22:30N 37°08' W 008°32'0 0.0
2018-Jul-17 22:00N 37°08' W 008°32'0 0.0
2018-Jul-17 21:30N 37°08' W 008°32'0 0.0
2018-Jul-17 21:00N 37°08' W 008°32'0 0.0
2018-Jul-17 20:31N 37°08' W 008°32'0 0.0
2018-Jul-17 20:00N 37°08' W 008°32'0 0.0
2018-Jul-17 19:31N 37°08' W 008°32'0 0.0
2018-Jul-17 19:00N 37°08' W 008°32'0 0.0
2018-Jul-17 18:30N 37°08' W 008°32'0 0.0
2018-Jul-17 18:00N 37°08' W 008°32'0 0.0
2018-Jul-17 17:30N 37°08' W 008°32'0 0.0
2018-Jul-17 17:00N 37°08' W 008°32'0 0.0
2018-Jul-17 16:30N 37°08' W 008°32'0 0.0
2018-Jul-17 16:00N 37°08' W 008°32'0 0.0
2018-Jul-17 15:31N 37°08' W 008°32'0 0.0
2018-Jul-17 15:00N 37°08' W 008°32'0 0.0
2018-Jul-17 14:30N 37°08' W 008°32'0 0.0
2018-Jul-17 14:00N 37°08' W 008°32'0 0.0
2018-Jul-17 13:30N 37°08' W 008°32'0 0.0
2018-Jul-17 13:01N 37°08' W 008°32'0 0.0
2018-Jul-17 12:30N 37°08' W 008°32'0 0.0
2018-Jul-17 12:01N 37°08' W 008°32'0 0.0
2018-Jul-17 11:31N 37°08' W 008°32'0 0.0
2018-Jul-17 11:01N 37°08' W 008°32'0 0.0
2018-Jul-17 10:31N 37°08' W 008°32'0 0.0
2018-Jul-17 10:00N 37°08' W 008°32'0 0.0
2018-Jul-17 09:31N 37°08' W 008°32'0 0.0
2018-Jul-17 09:00N 37°08' W 008°32'0 0.0
2018-Jul-17 08:30N 37°08' W 008°32'0 0.0
2018-Jul-17 08:00N 37°08' W 008°32'0 0.0
2018-Jul-17 07:31N 37°08' W 008°32'0 0.0
2018-Jul-17 07:00N 37°08' W 008°32'0 0.0
2018-Jul-17 06:30N 37°08' W 008°32'0 0.0
2018-Jul-17 06:00N 37°08' W 008°32'0 0.0
2018-Jul-17 05:30N 37°08' W 008°32'0 0.0
2018-Jul-17 04:55N 37°08' W 008°32'0 0.0
2018-Jul-17 04:30N 37°08' W 008°32'0 0.0
2018-Jul-17 03:56N 37°08' W 008°32'0 0.0
2018-Jul-17 03:25N 37°08' W 008°32'0 0.0
2018-Jul-17 03:00N 37°08' W 008°32'0 0.0
2018-Jul-17 02:28N 37°08' W 008°32'0 0.0
2018-Jul-17 01:58N 37°08' W 008°32'0 0.0
2018-Jul-17 01:28N 37°08' W 008°32'0 0.0
2018-Jul-17 00:46N 37°08' W 008°32'0 0.0
2018-Jul-17 00:29N 37°08' W 008°32'0 0.0
2018-Jul-16 23:30N 37°08' W 008°32'0 0.0
2018-Jul-16 23:00N 37°08' W 008°32'0 0.0
2018-Jul-16 22:30N 37°08' W 008°32'0 0.0
2018-Jul-16 22:00N 37°08' W 008°32'0 0.0
2018-Jul-16 21:30N 37°08' W 008°32'0 0.0
2018-Jul-16 20:59N 37°08' W 008°32'0 0.0
2018-Jul-16 20:28N 37°08' W 008°32'0 0.0
2018-Jul-16 19:55N 37°08' W 008°32'0 0.0
2018-Jul-16 19:27N 37°08' W 008°32'0 0.0
2018-Jul-16 19:01N 37°08' W 008°32'0 0.0
2018-Jul-16 18:30N 37°08' W 008°32'0 0.0
2018-Jul-16 18:00N 37°08' W 008°32'0 0.0
2018-Jul-16 17:31N 37°08' W 008°32'0 0.0
2018-Jul-16 17:00N 37°08' W 008°32'0 0.0
2018-Jul-16 16:30N 37°08' W 008°32'0 0.0
2018-Jul-16 16:01N 37°08' W 008°32'0 0.0
2018-Jul-16 15:31N 37°08' W 008°32'0 0.0
2018-Jul-16 15:01N 37°08' W 008°32'0 0.0
2018-Jul-16 14:30N 37°08' W 008°32'0 0.0
2018-Jul-16 14:01N 37°08' W 008°32'0 0.0
2018-Jul-16 13:30N 37°08' W 008°32'0 0.0
2018-Jul-16 13:00N 37°08' W 008°32'0 0.0
2018-Jul-16 12:30N 37°08' W 008°32'0 0.0
2018-Jul-16 12:00N 37°08' W 008°32'0 0.0
2018-Jul-16 11:30N 37°08' W 008°32'0 0.0
2018-Jul-16 11:01N 37°08' W 008°32'0 0.0
2018-Jul-16 10:31N 37°08' W 008°32'0 0.0
2018-Jul-16 10:01N 37°08' W 008°32'0 0.0
2018-Jul-16 09:30N 37°08' W 008°32'0 0.0
2018-Jul-16 09:00N 37°08' W 008°32'0 0.0
2018-Jul-16 08:30N 37°08' W 008°32'0 0.0
2018-Jul-16 08:01N 37°08' W 008°32'0 0.0
2018-Jul-16 07:30N 37°08' W 008°32'0 0.0
2018-Jul-16 07:00N 37°08' W 008°32'0 0.0
2018-Jul-16 06:30N 37°08' W 008°32'0 0.0
2018-Jul-16 06:01N 37°08' W 008°32'0 0.0
2018-Jul-16 05:30N 37°08' W 008°32'0 0.0
2018-Jul-16 05:00N 37°08' W 008°32'0 0.0
2018-Jul-16 04:30N 37°08' W 008°32'0 0.0
2018-Jul-16 03:59N 37°08' W 008°32'0 0.0
2018-Jul-16 03:30N 37°08' W 008°32'0 0.0
2018-Jul-16 03:01N 37°08' W 008°32'0 0.0
2018-Jul-16 02:30N 37°08' W 008°32'0 0.0
2018-Jul-16 02:00N 37°08' W 008°32'0 0.0
2018-Jul-16 01:31N 37°08' W 008°32'0 0.0
2018-Jul-16 01:00N 37°08' W 008°32'0 0.0
2018-Jul-16 00:30N 37°08' W 008°32'0 0.0
2018-Jul-16 00:00N 37°08' W 008°32'0 0.0
2018-Jul-15 23:30N 37°08' W 008°32'0 0.0
2018-Jul-15 23:01N 37°08' W 008°32'0 0.0
2018-Jul-15 22:31N 37°08' W 008°32'0 0.0
2018-Jul-15 22:00N 37°08' W 008°32'0 0.0
2018-Jul-15 21:31N 37°08' W 008°32'0 0.0
2018-Jul-15 21:00N 37°08' W 008°32'0 0.0
2018-Jul-15 20:30N 37°08' W 008°32'0 0.0
2018-Jul-15 20:00N 37°08' W 008°32'0 0.0
2018-Jul-15 19:30N 37°08' W 008°32'0 0.0
2018-Jul-15 19:01N 37°08' W 008°32'0 0.0
2018-Jul-15 18:30N 37°08' W 008°32'0 0.0
2018-Jul-15 18:00N 37°08' W 008°32'0 0.0
2018-Jul-15 17:31N 37°08' W 008°32'0 0.0
2018-Jul-15 17:00N 37°08' W 008°32'0 0.0
2018-Jul-15 16:29N 37°08' W 008°32'0 0.0
2018-Jul-15 16:01N 37°08' W 008°32'0 0.0
2018-Jul-15 15:30N 37°08' W 008°32'0 0.0
2018-Jul-15 15:00N 37°08' W 008°32'0 0.0
2018-Jul-15 14:30N 37°08' W 008°32'0 0.0
2018-Jul-15 14:01N 37°08' W 008°32'0 0.0
2018-Jul-15 13:30N 37°08' W 008°32'0 0.0
2018-Jul-15 13:00N 37°08' W 008°32'0 0.0
2018-Jul-15 12:30N 37°08' W 008°32'0 0.0
2018-Jul-15 12:00N 37°08' W 008°32'0 0.0
2018-Jul-15 11:30N 37°08' W 008°32'0 0.0
2018-Jul-15 11:00N 37°08' W 008°32'0 0.0
2018-Jul-15 10:31N 37°08' W 008°32'0 0.0
2018-Jul-15 10:00N 37°08' W 008°32'0 0.0
2018-Jul-15 09:31N 37°08' W 008°32'0 0.0
2018-Jul-15 09:00N 37°08' W 008°32'0 0.0
2018-Jul-15 08:30N 37°08' W 008°32'0 0.0
2018-Jul-15 08:00N 37°08' W 008°32'0 0.0
2018-Jul-15 07:30N 37°08' W 008°32'0 0.0
2018-Jul-15 07:01N 37°08' W 008°32'0 0.0
2018-Jul-15 06:31N 37°08' W 008°32'0 0.0
2018-Jul-15 06:00N 37°08' W 008°32'0 0.0
2018-Jul-15 05:30N 37°08' W 008°32'0 0.0
2018-Jul-15 05:00N 37°08' W 008°32'0 0.0
2018-Jul-15 04:31N 37°08' W 008°32'0 0.0
2018-Jul-15 04:01N 37°08' W 008°32'0 0.0
2018-Jul-15 03:30N 37°08' W 008°32'0 0.0
2018-Jul-15 03:01N 37°08' W 008°32'0 0.0
2018-Jul-15 02:30N 37°08' W 008°32'0 0.0
2018-Jul-15 02:01N 37°08' W 008°32'0 0.0
2018-Jul-15 01:30N 37°08' W 008°32'0 0.0
2018-Jul-15 01:01N 37°08' W 008°32'0 0.0
2018-Jul-15 00:31N 37°08' W 008°32'0 0.0
2018-Jul-15 00:00N 37°08' W 008°32'0 0.0
2018-Jul-14 23:31N 37°08' W 008°32'0 0.0
2018-Jul-14 23:01N 37°08' W 008°32'0 0.0
2018-Jul-14 22:31N 37°08' W 008°32'0 0.0
2018-Jul-14 22:00N 37°08' W 008°32'0 0.0
2018-Jul-14 21:30N 37°08' W 008°32'0 0.0
2018-Jul-14 21:00N 37°08' W 008°32'0 0.0
2018-Jul-14 20:30N 37°08' W 008°32'0 0.0
2018-Jul-14 20:00N 37°08' W 008°32'0 0.0
2018-Jul-14 19:30N 37°08' W 008°32'0 0.0
2018-Jul-14 19:00N 37°08' W 008°32'0 0.0
2018-Jul-14 18:30N 37°08' W 008°32'0 0.0
2018-Jul-14 18:00N 37°08' W 008°32'0 0.0
2018-Jul-14 17:30N 37°08' W 008°32'0 0.0
2018-Jul-14 17:00N 37°08' W 008°32'0 0.0
2018-Jul-14 16:30N 37°08' W 008°32'0 0.0
2018-Jul-14 16:00N 37°08' W 008°32'0 0.0
2018-Jul-14 15:31N 37°08' W 008°32'0 0.0
2018-Jul-14 15:01N 37°08' W 008°32'0 0.0
2018-Jul-14 14:31N 37°08' W 008°32'0 0.0
2018-Jul-14 13:30N 37°08' W 008°32'0 0.0
2018-Jul-14 13:01N 37°08' W 008°32'0 0.0
2018-Jul-14 12:30N 37°08' W 008°32'0 0.0
2018-Jul-14 12:00N 37°08' W 008°32'0 0.0
2018-Jul-14 11:30N 37°08' W 008°32'0 0.0
2018-Jul-14 11:01N 37°08' W 008°32'0 0.0
2018-Jul-14 10:30N 37°08' W 008°32'0 0.0
2018-Jul-14 10:00N 37°08' W 008°32'0 0.0
2018-Jul-14 09:30N 37°08' W 008°32'0 0.0
2018-Jul-14 09:00N 37°08' W 008°32'0 0.0
2018-Jul-14 08:30N 37°08' W 008°32'0 0.0
2018-Jul-14 08:01N 37°08' W 008°32'0 0.0
2018-Jul-14 07:31N 37°08' W 008°32'0 0.0
2018-Jul-14 07:00N 37°08' W 008°32'0 0.0
2018-Jul-14 06:31N 37°08' W 008°32'0 0.0
2018-Jul-14 06:00N 37°08' W 008°32'0 0.0
2018-Jul-14 05:30N 37°08' W 008°32'0 0.0
2018-Jul-14 05:00N 37°08' W 008°32'0 0.0
2018-Jul-14 04:31N 37°08' W 008°32'0 0.0
2018-Jul-14 04:00N 37°08' W 008°32'0 0.0
2018-Jul-14 03:30N 37°08' W 008°32'0 0.0
2018-Jul-14 03:00N 37°08' W 008°32'0 0.0
2018-Jul-14 02:30N 37°08' W 008°32'0 0.0
2018-Jul-14 02:01N 37°08' W 008°32'0 0.0
2018-Jul-14 01:30N 37°08' W 008°32'0 0.0
2018-Jul-14 01:00N 37°08' W 008°32'0 0.0
2018-Jul-14 00:30N 37°08' W 008°32'0 0.0
2018-Jul-14 00:00N 37°08' W 008°32'0 0.0
2018-Jul-13 23:30N 37°08' W 008°32'0 0.0
2018-Jul-13 23:00N 37°08' W 008°32'0 0.0
2018-Jul-13 22:30N 37°08' W 008°32'0 0.0
2018-Jul-13 22:01N 37°08' W 008°32'0 0.0
2018-Jul-13 21:30N 37°08' W 008°32'0 0.0
2018-Jul-13 21:01N 37°08' W 008°32'0 0.0
2018-Jul-13 20:30N 37°08' W 008°32'0 0.0
2018-Jul-13 20:00N 37°08' W 008°32'0 0.0
2018-Jul-13 19:30N 37°08' W 008°32'0 0.0
2018-Jul-13 19:00N 37°08' W 008°32'0 0.0
2018-Jul-13 18:30N 37°08' W 008°32'0 0.0
2018-Jul-13 18:00N 37°08' W 008°32'0 0.0
2018-Jul-13 17:31N 37°08' W 008°32'0 0.0
2018-Jul-13 17:00N 37°08' W 008°32'0 0.0
2018-Jul-13 16:30N 37°08' W 008°32'0 0.0
2018-Jul-13 16:00N 37°08' W 008°32'0 0.0
2018-Jul-13 15:30N 37°08' W 008°32'0 0.0
2018-Jul-13 15:01N 37°08' W 008°32'0 0.0
2018-Jul-13 14:00N 37°08' W 008°32'0 0.0
2018-Jul-13 13:30N 37°08' W 008°32'0 0.0
2018-Jul-13 13:01N 37°08' W 008°32'0 0.0
2018-Jul-13 12:30N 37°08' W 008°32'0 0.0
2018-Jul-13 12:01N 37°08' W 008°32'0 0.0
2018-Jul-13 11:30N 37°08' W 008°32'0 0.0
2018-Jul-13 11:00N 37°08' W 008°32'0 0.0
2018-Jul-13 10:30N 37°08' W 008°32'0 0.0
2018-Jul-13 10:00N 37°08' W 008°32'0 0.0
2018-Jul-13 09:31N 37°08' W 008°32'0 0.0
2018-Jul-13 09:00N 37°08' W 008°32'0 0.0
2018-Jul-13 08:30N 37°08' W 008°32'0 0.0
2018-Jul-13 08:01N 37°08' W 008°32'0 0.0
2018-Jul-13 07:30N 37°08' W 008°32'0 0.0
2018-Jul-13 07:00N 37°08' W 008°32'0 0.0
2018-Jul-13 06:30N 37°08' W 008°32'0 0.0
2018-Jul-13 06:01N 37°08' W 008°32'0 0.0
2018-Jul-13 05:30N 37°08' W 008°32'0 0.0
2018-Jul-13 05:01N 37°08' W 008°32'0 0.0
2018-Jul-13 04:31N 37°08' W 008°32'0 0.0
2018-Jul-13 03:59N 37°08' W 008°32'0 0.0
2018-Jul-13 03:30N 37°08' W 008°32'0 0.0
2018-Jul-13 03:00N 37°08' W 008°32'0 0.0
2018-Jul-13 02:30N 37°08' W 008°32'0 0.0
2018-Jul-13 02:00N 37°08' W 008°32'0 0.0
2018-Jul-13 01:31N 37°08' W 008°32'0 0.0
2018-Jul-13 01:00N 37°08' W 008°32'0 0.0
2018-Jul-13 00:30N 37°08' W 008°32'0 0.0
2018-Jul-13 00:00N 37°08' W 008°32'0 0.0
2018-Jul-12 23:30N 37°08' W 008°32'0 0.0
2018-Jul-12 23:00N 37°08' W 008°32'0 0.2
2018-Jul-12 22:31N 37°08' W 008°32'0 0.0
2018-Jul-12 22:00N 37°08' W 008°32'0 0.0
2018-Jul-12 21:30N 37°08' W 008°32'0 0.0
2018-Jul-12 21:00N 37°08' W 008°32'0 0.0
2018-Jul-12 20:31N 37°08' W 008°32'0 0.0
2018-Jul-12 20:00N 37°08' W 008°32'0 0.0
2018-Jul-12 19:30N 37°08' W 008°32'0 0.0
2018-Jul-12 18:59N 37°08' W 008°32'0 0.0
2018-Jul-12 18:30N 37°08' W 008°32'0 0.0
2018-Jul-12 18:00N 37°08' W 008°32'0 0.0
2018-Jul-12 17:30N 37°08' W 008°32'0 0.0
2018-Jul-12 17:01N 37°08' W 008°32'0 0.0
2018-Jul-12 16:30N 37°08' W 008°32'0 0.4
2018-Jul-12 16:01N 37°08' W 008°32'3 6.9
2018-Jul-12 15:30N 37°04' W 008°32'4 8.8
2018-Jul-12 15:00N 37°00' W 008°34'5 8.9
2018-Jul-12 14:30N 36°56' W 008°36'4 7.5
2018-Jul-12 14:00N 36°52' W 008°37'1 1.3
2018-Jul-12 13:30N 36°52' W 008°38'2 3.2
2018-Jul-12 13:00N 36°51' W 008°39'1 3.0
2018-Jul-12 12:30N 36°50' W 008°41'2 3.7
2018-Jul-12 12:00N 36°50' W 008°43'2 3.0
2018-Jul-12 11:29N 36°50' W 008°41'7 3.1
2018-Jul-12 09:06N 36°50' W 008°32'1 2.0
2018-Jul-12 08:46N 36°49' W 008°31'1 3.2
2018-Jul-12 08:30N 36°49' W 008°30'2 3.2
2018-Jul-12 08:00N 36°49' W 008°28'  

Dump ship's entire track history